Time;durP1;ratioP1;P1;durP2;ratioP2;P2;SDS_P1;SDS_P2;PMS_P1;PMS_P2;Temp;Humidity;BMP_temperature;BMP_pressure;BME280_temperature;BME280_humidity;BME280_pressure;Samples;Min_cycle;Max_cycle;Signal;HPM_P1;HPM_P2
2022/01/18 00:01:16;;;;;;;12.23;11.83;;;19.30;57.90;;;;;;5030999;28;20469;-44
2022/01/18 00:03:44;;;;;;;13.00;12.50;;;19.30;57.90;;;;;;5044701;28;20653;-45
2022/01/18 00:06:11;;;;;;;12.63;12.23;;;19.30;57.90;;;;;;5050954;28;20458;-45
2022/01/18 00:08:38;;;;;;;13.17;12.67;;;19.30;57.90;;;;;;5050897;28;20470;-48
2022/01/18 00:11:05;;;;;;;11.80;11.40;;;19.30;57.90;;;;;;5050460;28;20479;-43
2022/01/18 00:13:44;;;;;;;12.43;12.03;;;19.30;57.90;;;;;;5052611;28;20484;-46
2022/01/18 00:18:59;;;;;;;12.57;12.10;;;19.20;57.90;;;;;;5052537;28;20454;-45
2022/01/18 00:21:36;;;;;;;13.37;12.67;;;19.20;58.00;;;;;;5054423;28;20835;-45
2022/01/18 00:24:06;;;;;;;12.80;12.30;;;19.10;58.00;;;;;;5054374;28;20436;-45
2022/01/18 00:26:33;;;;;;;11.93;11.53;;;19.10;58.20;;;;;;5051546;28;20535;-46
2022/01/18 00:29:06;;;;;;;12.90;12.50;;;19.10;58.20;;;;;;5034284;28;20507;-52
2022/01/18 00:34:24;;;;;;;12.97;12.37;;;19.10;58.30;;;;;;5033755;28;20473;-49
2022/01/18 00:36:59;;;;;;;13.10;12.60;;;19.00;58.30;;;;;;5034244;28;20810;-46
2022/01/18 00:39:27;;;;;;;13.37;12.70;;;19.00;58.30;;;;;;5041405;28;20459;-45
2022/01/18 00:41:55;;;;;;;13.20;12.70;;;19.00;58.30;;;;;;5053891;28;20468;-45
2022/01/18 00:44:22;;;;;;;13.60;13.10;;;19.00;58.30;;;;;;5053908;28;20444;-45
2022/01/18 00:46:51;;;;;;;12.80;12.40;;;18.90;58.30;;;;;;5054007;28;20757;-45
2022/01/18 00:49:18;;;;;;;13.37;12.87;;;18.90;58.60;;;;;;5054084;28;20523;-45
2022/01/18 00:51:52;;;;;;;13.67;13.17;;;18.90;58.60;;;;;;5051519;28;20479;-54
2022/01/18 00:54:22;;;;;;;13.43;12.93;;;18.80;58.70;;;;;;5053734;28;21073;-45
2022/01/18 00:56:52;;;;;;;12.70;12.10;;;18.80;58.70;;;;;;5053743;28;20455;-49
2022/01/18 00:59:20;;;;;;;12.97;12.57;;;18.80;58.90;;;;;;5053704;28;20497;-43
2022/01/18 01:01:47;;;;;;;13.63;12.80;;;18.80;59.00;;;;;;5053479;28;20465;-45
2022/01/18 01:04:17;;;;;;;13.50;12.83;;;18.80;58.90;;;;;;5037883;28;20448;-45
2022/01/18 01:06:44;;;;;;;12.80;12.40;;;18.80;58.90;;;;;;5033659;28;20457;-47
2022/01/18 01:09:11;;;;;;;13.97;13.30;;;18.70;59.10;;;;;;5033589;28;20449;-45
2022/01/18 01:11:40;;;;;;;12.00;11.70;;;18.70;59.40;;;;;;5033275;28;20479;-46
2022/01/18 01:14:09;;;;;;;12.90;12.50;;;18.70;59.60;;;;;;5034052;28;20824;-46
2022/01/18 01:16:50;;;;;;;13.50;13.00;;;18.70;59.70;;;;;;5053416;28;20873;-45
2022/01/18 01:19:46;;;;;;;13.53;13.03;;;18.60;59.70;;;;;;5053500;28;20505;-45
2022/01/18 01:33:49;;;;;;;12.37;11.93;;;18.60;60.50;;;;;;5033022;28;20922;-48
2022/01/18 01:42:11;;;;;;;13.03;12.63;;;18.60;60.80;;;;;;5052727;28;20475;-47
2022/01/18 01:44:43;;;;;;;13.00;12.60;;;18.60;60.90;;;;;;5052936;28;20440;-45
2022/01/18 01:47:11;;;;;;;12.90;12.50;;;18.50;61.10;;;;;;5052950;28;20467;-45
2022/01/18 01:49:39;;;;;;;12.60;12.10;;;18.50;61.30;;;;;;5041083;28;20453;-45
2022/01/18 01:52:11;;;;;;;12.80;12.40;;;18.50;61.50;;;;;;5033247;28;20440;-50
2022/01/18 01:54:39;;;;;;;12.60;12.30;;;18.50;61.80;;;;;;5032748;28;20485;-50
2022/01/18 01:57:07;;;;;;;12.70;12.30;;;18.40;62.20;;;;;;5032643;28;20456;-50
2022/01/18 01:59:35;;;;;;;13.30;12.80;;;18.40;62.30;;;;;;5032554;28;20441;-49
2022/01/18 02:02:02;;;;;;;13.23;12.67;;;18.50;62.60;;;;;;5044033;28;20467;-49
2022/01/18 02:04:29;;;;;;;12.87;12.47;;;18.50;62.80;;;;;;5052410;28;20514;-50
2022/01/18 02:06:56;;;;;;;12.60;12.30;;;18.50;62.60;;;;;;5052497;28;20444;-51
2022/01/18 02:09:25;;;;;;;12.33;11.83;;;18.40;62.80;;;;;;5052325;28;20459;-51
2022/01/18 02:11:55;;;;;;;12.27;11.87;;;18.40;63.00;;;;;;5052080;28;21004;-49
2022/01/18 02:14:23;;;;;;;13.50;12.80;;;18.40;62.90;;;;;;5036230;28;20477;-51
2022/01/18 02:22:21;;;;;;;12.97;12.57;;;18.30;63.50;;;;;;5032179;28;20424;-51
2022/01/18 02:24:48;;;;;;;12.70;12.30;;;18.40;63.60;;;;;;5034356;28;20455;-48
2022/01/18 02:27:16;;;;;;;12.93;12.53;;;18.30;63.80;;;;;;5052086;28;20819;-50
2022/01/18 02:29:43;;;;;;;12.00;11.60;;;18.30;64.10;;;;;;5051881;28;20455;-51
2022/01/18 02:32:10;;;;;;;13.10;12.70;;;18.30;64.40;;;;;;5051702;28;20480;-51
2022/01/18 02:34:37;;;;;;;12.83;12.33;;;18.40;64.40;;;;;;5051812;28;20503;-50
2022/01/18 02:37:05;;;;;;;13.03;12.63;;;18.40;64.50;;;;;;5049687;28;20440;-48
2022/01/18 02:39:34;;;;;;;12.10;11.77;;;18.30;64.70;;;;;;5032032;28;20555;-50
2022/01/18 02:42:03;;;;;;;12.70;12.30;;;18.30;64.80;;;;;;5031577;28;20477;-50
2022/01/18 02:44:31;;;;;;;12.90;12.50;;;18.30;65.00;;;;;;5032079;28;20761;-52
2022/01/18 02:47:00;;;;;;;12.10;11.70;;;18.20;65.40;;;;;;5031886;28;20445;-50
2022/01/18 02:49:27;;;;;;;12.50;12.10;;;18.20;65.70;;;;;;5037071;28;20502;-53
2022/01/18 02:51:55;;;;;;;12.60;12.20;;;18.20;65.70;;;;;;5051291;28;20475;-48
2022/01/18 02:54:22;;;;;;;12.57;12.17;;;18.20;65.70;;;;;;5051515;28;20837;-55
2022/01/18 02:56:55;;;;;;;11.87;11.47;;;18.30;65.60;;;;;;5051448;28;20525;-56
2022/01/18 02:59:32;;;;;;;12.50;12.10;;;18.30;65.50;;;;;;5051738;28;20454;-51
2022/01/18 03:04:47;;;;;;;12.80;12.30;;;18.20;65.90;;;;;;5051579;28;20423;-54
2022/01/18 03:07:14;;;;;;;12.50;12.10;;;18.20;65.90;;;;;;5051522;28;20456;-52
2022/01/18 03:09:41;;;;;;;12.50;12.10;;;18.20;66.40;;;;;;5051370;28;20451;-56
2022/01/18 03:12:11;;;;;;;13.00;12.50;;;18.10;66.50;;;;;;5032740;28;20444;-48
2022/01/18 03:14:40;;;;;;;12.93;12.47;;;18.10;66.70;;;;;;5031410;28;20477;-50
2022/01/18 03:17:07;;;;;;;12.90;12.50;;;18.10;66.80;;;;;;5031483;28;20950;-50
2022/01/18 03:19:34;;;;;;;12.90;12.50;;;18.10;67.10;;;;;;5031600;28;20451;-51
2022/01/18 03:22:02;;;;;;;12.17;11.77;;;18.20;67.10;;;;;;5039327;28;20480;-49
2022/01/18 03:24:56;;;;;;;13.33;12.83;;;18.10;67.00;;;;;;5050937;28;20527;-50
2022/01/18 03:30:11;;;;;;;13.07;12.67;;;18.00;67.60;;;;;;5051316;28;20454;-49
2022/01/18 03:32:39;;;;;;;12.93;12.40;;;18.00;67.60;;;;;;5037423;28;20456;-51
2022/01/18 03:35:09;;;;;;;13.43;12.83;;;17.90;67.80;;;;;;5031197;28;20480;-48
2022/01/18 03:37:37;;;;;;;13.20;12.80;;;18.00;68.20;;;;;;5031392;28;20919;-51
2022/01/18 03:40:05;;;;;;;12.40;12.10;;;18.00;68.10;;;;;;5031177;28;20915;-51
2022/01/18 03:42:38;;;;;;;13.30;12.80;;;18.00;68.30;;;;;;5031124;28;20441;-48
2022/01/18 03:45:07;;;;;;;12.97;12.53;;;18.00;68.40;;;;;;5043845;28;20810;-47
2022/01/18 03:47:35;;;;;;;13.67;13.00;;;18.00;68.40;;;;;;5032008;28;20451;-51
2022/01/18 03:50:04;;;;;;;13.30;12.80;;;18.00;68.60;;;;;;5035092;28;20523;-50
2022/01/18 03:52:31;;;;;;;12.90;12.30;;;18.00;68.90;;;;;;5034905;28;20459;-48
2022/01/18 03:54:58;;;;;;;13.37;12.90;;;18.10;68.80;;;;;;5035009;28;20484;-50
2022/01/18 03:57:26;;;;;;;13.40;12.90;;;18.10;68.80;;;;;;5054960;28;20857;-52
2022/01/18 03:59:54;;;;;;;12.70;12.30;;;18.10;69.10;;;;;;5054748;28;20452;-47
2022/01/18 04:02:21;;;;;;;13.50;13.10;;;18.20;69.30;;;;;;5054497;28;20470;-48
2022/01/18 04:04:48;;;;;;;14.10;13.60;;;18.20;69.20;;;;;;5054710;28;20436;-49
2022/01/18 04:07:15;;;;;;;13.63;13.13;;;18.20;69.20;;;;;;5035144;28;20449;-52
2022/01/18 04:09:42;;;;;;;12.90;12.40;;;18.20;69.20;;;;;;5034633;28;20445;-48
2022/01/18 04:12:10;;;;;;;13.10;12.70;;;18.20;69.20;;;;;;5034484;28;20457;-48
2022/01/18 04:14:37;;;;;;;13.40;12.90;;;18.20;69.30;;;;;;5034603;28;20480;-49
2022/01/18 04:17:18;;;;;;;12.90;12.10;;;18.20;69.40;;;;;;5051814;28;20543;-51
2022/01/18 04:28:07;;;;;;;13.70;13.30;;;18.20;70.10;;;;;;5054109;28;20493;-51
2022/01/18 04:30:34;;;;;;;13.10;12.70;;;18.10;70.20;;;;;;5054159;28;20467;-49
2022/01/18 04:33:02;;;;;;;13.00;12.50;;;18.20;70.80;;;;;;5053988;28;20452;-51
2022/01/18 04:35:30;;;;;;;13.60;13.00;;;18.20;70.90;;;;;;5052418;28;20472;-51
2022/01/18 04:37:57;;;;;;;13.80;13.30;;;18.20;70.90;;;;;;5054140;28;20792;-49
2022/01/18 04:40:28;;;;;;;13.20;12.70;;;18.10;71.00;;;;;;5053967;28;20472;-49
2022/01/18 04:43:06;;;;;;;12.90;12.50;;;18.20;71.00;;;;;;5053942;28;20452;-50
2022/01/18 04:48:27;;;;;;;12.20;11.87;;;18.20;70.90;;;;;;5034233;28;20556;-51
2022/01/18 04:50:56;;;;;;;13.10;12.60;;;18.20;70.50;;;;;;5033764;28;20473;-49
2022/01/18 04:53:23;;;;;;;13.23;12.80;;;18.10;70.80;;;;;;5033744;28;20484;-48
2022/01/18 04:55:56;;;;;;;13.30;12.87;;;18.00;71.60;;;;;;5039725;28;20549;-50
2022/01/18 04:58:24;;;;;;;13.70;13.20;;;18.00;72.30;;;;;;5053639;28;20475;-50
2022/01/18 05:00:52;;;;;;;14.80;14.20;;;18.00;72.50;;;;;;5052739;28;20818;-49
2022/01/18 05:03:21;;;;;;;13.40;12.90;;;17.90;72.30;;;;;;5053408;28;20487;-49
2022/01/18 05:05:52;;;;;;;14.37;13.73;;;18.10;72.50;;;;;;5047464;28;20446;-50
2022/01/18 05:08:19;;;;;;;14.00;13.50;;;18.10;72.60;;;;;;5033559;28;20453;-48
2022/01/18 05:10:52;;;;;;;14.30;13.80;;;18.00;72.20;;;;;;5033544;28;20471;-50
2022/01/18 05:13:37;;;;;;;14.80;14.30;;;18.10;72.90;;;;;;5033550;28;20452;-50
2022/01/18 05:16:21;;;;;;;14.40;13.80;;;18.10;72.70;;;;;;5040926;28;20483;-49
2022/01/18 05:19:06;;;;;;;13.80;13.30;;;18.10;72.40;;;;;;5053055;28;20463;-52
2022/01/18 05:22:55;;;;;;;14.20;13.70;;;18.00;72.50;;;;;;5053074;28;20514;-48
2022/01/18 05:24:20;;;;;;;14.63;14.13;;;18.00;73.20;;;;;;5053321;28;20448;-47
2022/01/18 05:26:48;;;;;;;14.40;13.80;;;18.00;73.40;;;;;;5039498;28;20473;-48
2022/01/18 05:29:15;;;;;;;15.23;14.40;;;17.90;74.50;;;;;;5033226;28;20441;-48
2022/01/18 05:31:42;;;;;;;15.33;14.60;;;18.00;75.00;;;;;;5033045;28;20472;-50
2022/01/18 05:34:11;;;;;;;14.70;14.20;;;18.00;75.30;;;;;;5033085;28;20658;-51
2022/01/18 05:36:38;;;;;;;14.60;14.00;;;18.10;75.20;;;;;;5044471;28;20455;-50
2022/01/18 05:39:06;;;;;;;13.80;13.30;;;18.10;75.30;;;;;;5052881;28;20547;-48
2022/01/18 05:41:33;;;;;;;14.30;13.70;;;18.00;75.40;;;;;;5052606;28;20468;-50
2022/01/18 05:44:00;;;;;;;14.30;13.80;;;18.00;76.00;;;;;;5052992;28;20448;-49
2022/01/18 05:46:27;;;;;;;14.03;13.63;;;17.90;76.30;;;;;;5042321;28;20453;-48
2022/01/18 05:48:54;;;;;;;13.47;13.03;;;18.10;76.10;;;;;;5032888;28;20461;-50
2022/01/18 05:51:23;;;;;;;14.20;13.40;;;18.10;77.20;;;;;;5032722;28;20477;-49
2022/01/18 05:53:50;;;;;;;15.17;14.60;;;19.00;76.60;;;;;;5032569;28;20455;-49
2022/01/18 05:56:17;;;;;;;13.97;13.47;;;19.60;72.20;;;;;;5040870;28;20480;-46
2022/01/18 05:58:45;;;;;;;14.63;13.90;;;20.00;69.70;;;;;;5052614;28;20459;-48
2022/01/18 06:01:13;;;;;;;16.73;15.53;;;20.30;69.90;;;;;;5052428;28;20507;-48
2022/01/18 06:03:53;;;;;;;16.60;15.90;;;20.40;73.60;;;;;;5052374;28;20480;-46
2022/01/18 06:09:06;;;;;;;16.93;15.93;;;20.60;83.50;;;;;;5032574;28;20516;-47
2022/01/18 06:11:33;;;;;;;19.50;17.67;;;20.70;90.80;;;;;;5031719;28;20475;-47
2022/01/18 06:14:00;;;;;;;17.80;16.30;;;20.80;95.70;;;;;;5032494;28;20448;-49
2022/01/18 06:16:27;;;;;;;20.73;17.03;;;20.80;99.90;;;;;;5041278;28;20483;-47
2022/01/18 06:18:54;;;;;;;19.90;17.47;;;20.70;99.90;;;;;;5052196;28;20448;-48
2022/01/18 06:21:22;;;;;;;26.03;18.77;;;20.90;99.90;;;;;;5051993;28;20832;-50
2022/01/18 06:23:49;;;;;;;20.93;19.00;;;20.90;99.90;;;;;;5050290;28;20444;-48
2022/01/18 06:26:17;;;;;;;19.53;17.67;;;20.80;99.90;;;;;;5032276;28;20951;-50
2022/01/18 06:28:46;;;;;;;19.07;17.30;;;20.80;99.90;;;;;;5032161;28;20453;-52
2022/01/18 06:31:14;;;;;;;30.90;16.80;;;21.00;99.90;;;;;;5032002;28;21010;-50
2022/01/18 06:33:42;;;;;;;18.83;16.87;;;21.00;99.90;;;;;;5031865;28;20531;-47
2022/01/18 06:36:09;;;;;;;27.30;18.13;;;20.90;99.90;;;;;;5029466;28;20559;-53
2022/01/18 06:38:36;;;;;;;19.40;17.60;;;20.90;99.90;;;;;;5031834;28;20460;-45
2022/01/18 06:41:04;;;;;;;20.00;18.20;;;20.90;99.90;;;;;;5031790;28;20615;-47
2022/01/18 06:43:33;;;;;;;18.87;17.20;;;20.80;99.90;;;;;;5031518;28;20452;-46
2022/01/18 06:46:00;;;;;;;25.57;17.77;;;20.70;99.90;;;;;;5031676;28;20437;-47
2022/01/18 06:48:27;;;;;;;18.33;17.07;;;20.70;99.90;;;;;;5031704;28;20449;-45
2022/01/18 06:50:54;;;;;;;18.63;17.30;;;20.70;99.90;;;;;;5031375;28;20484;-46
2022/01/18 06:53:21;;;;;;;18.60;17.00;;;20.70;99.90;;;;;;5031530;28;20455;-46
2022/01/18 06:55:52;;;;;;;18.17;16.30;;;20.70;99.90;;;;;;5031526;28;20491;-45
2022/01/18 06:58:20;;;;;;;18.00;16.70;;;20.60;99.90;;;;;;5031763;28;20442;-47
2022/01/18 07:00:48;;;;;;;19.10;17.57;;;20.60;99.90;;;;;;5031584;28;20468;-46
2022/01/18 07:03:17;;;;;;;18.07;16.47;;;20.50;99.90;;;;;;5031385;28;20452;-46
2022/01/18 07:05:44;;;;;;;18.30;16.60;;;20.50;99.90;;;;;;5031680;28;20445;-46
2022/01/18 07:08:11;;;;;;;18.60;16.87;;;20.50;99.90;;;;;;5031575;28;20445;-47
2022/01/18 07:10:38;;;;;;;15.70;14.63;;;20.40;99.90;;;;;;5031462;28;20465;-48
2022/01/18 07:13:05;;;;;;;14.67;13.47;;;20.40;99.70;;;;;;5031367;28;20504;-46
2022/01/18 07:15:32;;;;;;;14.07;13.13;;;20.40;99.20;;;;;;5031471;28;21191;-49
2022/01/18 07:18:01;;;;;;;15.60;14.50;;;20.30;98.90;;;;;;5031621;28;20445;-48
2022/01/18 07:20:28;;;;;;;15.40;14.00;;;20.30;98.60;;;;;;5031320;28;20986;-47
2022/01/18 07:22:55;;;;;;;15.23;14.13;;;20.30;98.60;;;;;;5032595;28;20449;-45
2022/01/18 07:25:25;;;;;;;14.97;13.83;;;20.30;97.70;;;;;;5035597;28;20441;-47
2022/01/18 07:27:52;;;;;;;15.23;14.03;;;20.30;97.50;;;;;;5035428;28;20455;-47
2022/01/18 07:30:19;;;;;;;15.53;14.23;;;20.20;97.00;;;;;;5035366;28;20969;-46
2022/01/18 07:32:46;;;;;;;15.23;13.93;;;20.20;96.70;;;;;;5035191;28;20543;-46
2022/01/18 07:35:14;;;;;;;14.57;13.40;;;20.20;96.30;;;;;;5035249;28;20485;-47
2022/01/18 07:37:43;;;;;;;14.47;13.33;;;20.10;95.80;;;;;;5035473;28;20445;-47
2022/01/18 07:40:10;;;;;;;25.20;13.47;;;20.10;95.30;;;;;;5035123;28;20469;-47
2022/01/18 07:42:37;;;;;;;15.30;14.20;;;20.00;95.10;;;;;;5035372;28;20445;-45
2022/01/18 07:45:05;;;;;;;16.27;14.77;;;20.00;95.00;;;;;;5035116;28;20480;-48
2022/01/18 07:47:32;;;;;;;12.80;11.90;;;20.00;94.60;;;;;;5035063;28;20449;-46
2022/01/18 07:49:59;;;;;;;12.67;11.70;;;19.90;94.30;;;;;;5034793;28;20515;-48
2022/01/18 07:52:29;;;;;;;13.30;12.10;;;19.90;94.00;;;;;;5035347;28;20448;-51
2022/01/18 07:54:56;;;;;;;13.87;13.07;;;19.90;93.80;;;;;;5035073;28;20536;-46
2022/01/18 07:57:23;;;;;;;12.90;11.97;;;19.80;93.60;;;;;;5034974;28;20449;-46
2022/01/18 07:59:50;;;;;;;15.57;14.87;;;19.70;93.40;;;;;;5034897;28;20452;-47
2022/01/18 08:02:17;;;;;;;15.17;14.10;;;19.70;93.10;;;;;;5034642;28;20449;-48
2022/01/18 08:04:44;;;;;;;14.40;13.50;;;19.60;93.00;;;;;;5034790;28;20441;-46
2022/01/18 08:07:11;;;;;;;15.97;14.80;;;19.60;92.80;;;;;;5034981;28;20449;-52
2022/01/18 08:09:40;;;;;;;14.67;13.77;;;19.40;92.90;;;;;;5034653;28;20445;-49
2022/01/18 08:12:09;;;;;;;14.23;13.53;;;19.40;93.00;;;;;;5034478;28;20817;-50
2022/01/18 08:14:42;;;;;;;14.60;13.60;;;19.30;92.80;;;;;;5034695;28;20448;-47
2022/01/18 08:17:09;;;;;;;14.10;13.50;;;19.30;92.90;;;;;;5034405;28;20480;-47
2022/01/18 08:19:37;;;;;;;15.23;14.30;;;19.20;92.80;;;;;;5034553;28;20445;-47
2022/01/18 08:22:05;;;;;;;14.40;13.70;;;19.20;92.90;;;;;;5034284;28;20444;-48
2022/01/18 08:24:32;;;;;;;15.43;14.73;;;19.20;92.80;;;;;;5034409;28;20648;-48
2022/01/18 08:27:01;;;;;;;14.33;13.50;;;19.10;92.50;;;;;;5034422;28;20452;-47
2022/01/18 08:29:28;;;;;;;14.00;13.40;;;19.10;92.60;;;;;;5034366;28;20806;-48
2022/01/18 08:31:55;;;;;;;15.53;14.20;;;19.00;92.20;;;;;;5034156;28;20469;-48
2022/01/18 08:34:22;;;;;;;15.20;14.37;;;19.00;92.30;;;;;;5033935;28;20440;-52
2022/01/18 08:36:50;;;;;;;15.43;14.33;;;18.90;92.10;;;;;;5034174;28;20512;-47
2022/01/18 08:39:17;;;;;;;15.00;14.23;;;18.90;91.80;;;;;;5034260;28;20452;-48
2022/01/18 08:41:44;;;;;;;14.80;14.20;;;18.90;91.90;;;;;;5033906;28;20562;-49
2022/01/18 08:44:13;;;;;;;14.87;14.17;;;18.80;92.00;;;;;;5034118;28;20974;-47
2022/01/18 08:46:40;;;;;;;14.97;14.37;;;18.80;91.80;;;;;;5034230;28;20511;-50
2022/01/18 08:49:07;;;;;;;14.70;14.10;;;18.70;91.60;;;;;;5034024;28;20464;-48
2022/01/18 08:51:36;;;;;;;14.00;13.40;;;18.70;91.80;;;;;;5033539;28;20477;-49
2022/01/18 08:54:04;;;;;;;13.90;13.20;;;18.60;91.90;;;;;;5033972;28;20441;-49
2022/01/18 08:56:32;;;;;;;15.00;14.23;;;18.60;92.00;;;;;;5033741;28;20503;-47
2022/01/18 08:58:59;;;;;;;13.90;13.30;;;18.50;91.90;;;;;;5033857;28;20523;-48
2022/01/18 09:01:28;;;;;;;13.03;12.53;;;18.60;91.80;;;;;;5033655;28;20496;-49
2022/01/18 09:03:55;;;;;;;14.77;13.67;;;18.60;91.90;;;;;;5033644;28;20456;-46
2022/01/18 09:06:24;;;;;;;13.50;12.67;;;18.50;91.60;;;;;;5033704;28;20441;-47
2022/01/18 09:08:56;;;;;;;14.27;13.67;;;18.50;91.50;;;;;;5033712;28;20485;-48
2022/01/18 09:11:25;;;;;;;14.57;13.83;;;18.50;91.40;;;;;;5033538;28;20465;-47
2022/01/18 09:13:53;;;;;;;12.93;12.43;;;18.50;91.30;;;;;;5033430;28;20544;-48
2022/01/18 09:16:20;;;;;;;12.73;12.03;;;18.50;91.20;;;;;;5033475;28;20845;-47
2022/01/18 09:18:50;;;;;;;13.53;13.03;;;18.50;91.10;;;;;;5033495;28;20453;-46
2022/01/18 09:21:18;;;;;;;13.10;12.50;;;18.60;90.90;;;;;;5033298;28;20896;-49
2022/01/18 09:23:45;;;;;;;13.40;12.90;;;18.50;90.70;;;;;;5033179;28;20452;-48
2022/01/18 09:26:13;;;;;;;13.27;12.77;;;18.50;90.60;;;;;;5033147;28;20802;-50
2022/01/18 09:28:41;;;;;;;15.00;14.30;;;18.50;90.50;;;;;;5033352;28;20507;-48
2022/01/18 09:31:08;;;;;;;13.30;12.80;;;18.70;90.20;;;;;;5033152;28;20504;-48
2022/01/18 09:33:35;;;;;;;13.37;12.80;;;19.00;89.90;;;;;;5032940;28;20465;-47
2022/01/18 09:36:03;;;;;;;13.70;13.20;;;19.30;87.80;;;;;;5033139;28;20480;-47
2022/01/18 09:38:30;;;;;;;12.87;12.40;;;19.50;85.80;;;;;;5033069;28;20453;-47
2022/01/18 09:40:59;;;;;;;12.60;12.10;;;19.60;84.10;;;;;;5033167;28;20472;-52
2022/01/18 09:43:28;;;;;;;13.53;13.03;;;19.70;82.60;;;;;;5032774;28;20445;-49
2022/01/18 09:45:57;;;;;;;13.77;13.23;;;19.70;81.60;;;;;;5032161;28;20508;-48
2022/01/18 09:48:24;;;;;;;14.00;13.50;;;19.80;80.90;;;;;;5032826;28;20456;-50
2022/01/18 09:50:51;;;;;;;14.10;13.60;;;19.80;80.20;;;;;;5032509;28;20483;-48
2022/01/18 09:53:20;;;;;;;14.10;13.30;;;19.80;79.50;;;;;;5032616;28;20510;-50
2022/01/18 09:55:49;;;;;;;13.87;13.27;;;19.80;79.00;;;;;;5032796;28;20457;-48
2022/01/18 09:58:16;;;;;;;15.83;15.20;;;19.80;78.50;;;;;;5032727;28;20515;-49
2022/01/18 10:00:44;;;;;;;13.43;12.90;;;19.80;77.80;;;;;;5032506;28;21045;-46
2022/01/18 10:03:25;;;;;;;13.17;12.60;;;19.80;78.10;;;;;;5032290;28;20453;-51
2022/01/18 10:05:52;;;;;;;13.63;13.10;;;19.80;76.80;;;;;;5032610;28;20452;-50
2022/01/18 10:08:21;;;;;;;13.23;12.63;;;19.80;76.60;;;;;;5032406;28;20794;-49
2022/01/18 10:10:49;;;;;;;13.17;12.67;;;19.80;76.50;;;;;;5032324;28;20468;-46
2022/01/18 10:13:19;;;;;;;12.40;11.90;;;19.70;76.20;;;;;;5032048;28;20449;-46
2022/01/18 10:16:03;;;;;;;12.60;11.80;;;19.70;76.00;;;;;;5032292;28;20448;-47
2022/01/18 10:18:37;;;;;;;12.60;12.20;;;19.60;75.70;;;;;;5032270;28;20969;-46
2022/01/18 10:21:06;;;;;;;12.63;12.13;;;19.60;75.70;;;;;;5032210;28;20504;-47
2022/01/18 10:23:36;;;;;;;12.77;12.27;;;19.60;75.60;;;;;;5032055;28;20449;-50
2022/01/18 10:26:24;;;;;;;12.50;12.10;;;19.60;75.30;;;;;;5032493;28;20437;-49
2022/01/18 10:29:03;;;;;;;12.80;12.30;;;19.60;75.40;;;;;;5032154;28;20503;-50
2022/01/18 10:31:36;;;;;;;12.63;12.13;;;19.50;75.10;;;;;;5031729;28;20479;-49
2022/01/18 10:34:23;;;;;;;12.60;12.10;;;19.50;75.20;;;;;;5032026;28;20449;-46
2022/01/18 10:36:58;;;;;;;12.73;12.23;;;19.40;75.30;;;;;;5031815;28;21009;-48
2022/01/18 10:39:29;;;;;;;13.40;12.50;;;19.30;75.60;;;;;;5032021;28;20881;-46
2022/01/18 10:41:57;;;;;;;12.10;11.70;;;19.20;75.90;;;;;;5031641;28;20472;-48
2022/01/18 10:44:25;;;;;;;12.07;11.67;;;19.10;76.20;;;;;;5031954;28;20449;-46
2022/01/18 10:46:54;;;;;;;12.20;11.70;;;19.10;76.60;;;;;;5031692;28;20449;-48
2022/01/18 10:49:30;;;;;;;12.03;11.63;;;19.10;76.60;;;;;;5031788;28;20449;-48
2022/01/18 10:51:59;;;;;;;12.20;11.70;;;19.10;76.60;;;;;;5031768;28;20563;-46
2022/01/18 10:54:38;;;;;;;12.90;12.40;;;19.10;76.40;;;;;;5031676;28;20479;-48
2022/01/18 10:57:07;;;;;;;12.10;11.70;;;19.10;76.20;;;;;;5031581;28;20491;-45
2022/01/18 10:59:37;;;;;;;12.80;12.30;;;19.20;76.10;;;;;;5031638;28;20452;-48
2022/01/18 11:02:10;;;;;;;12.00;11.60;;;19.20;76.00;;;;;;5031287;28;20989;-52
2022/01/18 11:04:38;;;;;;;12.70;12.20;;;19.10;75.90;;;;;;5032083;28;20442;-47
2022/01/18 11:07:06;;;;;;;12.73;12.33;;;19.10;75.80;;;;;;5031571;28;20514;-47
2022/01/18 11:09:35;;;;;;;12.30;12.00;;;19.10;75.60;;;;;;5031549;28;20457;-46
2022/01/18 11:12:03;;;;;;;12.17;11.77;;;19.10;75.40;;;;;;5031231;28;20828;-48
2022/01/18 11:14:31;;;;;;;12.87;12.47;;;19.10;75.20;;;;;;5031553;28;20778;-48
2022/01/18 11:16:59;;;;;;;14.23;13.57;;;19.10;75.20;;;;;;5031431;28;21023;-46
2022/01/18 11:19:33;;;;;;;11.93;11.53;;;19.10;75.20;;;;;;5031602;28;20926;-46
2022/01/18 11:22:03;;;;;;;12.53;12.13;;;19.10;75.20;;;;;;5031116;28;20969;-46
2022/01/18 11:24:31;;;;;;;12.20;11.80;;;19.10;75.10;;;;;;5031223;28;20440;-48
2022/01/18 11:27:00;;;;;;;12.53;12.10;;;19.10;75.10;;;;;;5031386;28;20536;-50
2022/01/18 11:29:29;;;;;;;12.13;11.73;;;19.10;74.90;;;;;;5031272;28;20453;-48
2022/01/18 11:31:57;;;;;;;12.37;11.97;;;19.00;74.70;;;;;;5030958;28;20469;-48
2022/01/18 11:34:37;;;;;;;12.00;11.60;;;19.10;74.80;;;;;;5031264;28;20471;-48
2022/01/18 11:37:12;;;;;;;12.80;12.40;;;19.00;74.70;;;;;;5031420;28;20690;-46
2022/01/18 11:39:39;;;;;;;12.70;12.30;;;19.00;74.70;;;;;;5031214;28;20449;-47
2022/01/18 11:42:11;;;;;;;12.53;12.03;;;18.90;74.70;;;;;;5031183;28;20449;-45
2022/01/18 11:44:39;;;;;;;12.27;11.87;;;18.90;75.10;;;;;;5031178;28;20873;-46
2022/01/18 11:47:09;;;;;;;12.90;12.40;;;18.80;75.10;;;;;;5031267;28;20885;-47
2022/01/18 11:49:44;;;;;;;12.30;11.90;;;18.80;75.20;;;;;;5031085;28;20457;-47
2022/01/18 11:52:35;;;;;;;12.30;11.90;;;18.80;75.20;;;;;;5030870;28;20448;-46
2022/01/18 11:55:03;;;;;;;12.50;12.10;;;18.90;75.00;;;;;;5031198;28;20441;-46
2022/01/18 11:57:38;;;;;;;11.93;11.53;;;18.90;74.50;;;;;;5031025;28;20825;-48
2022/01/18 12:00:24;;;;;;;12.10;11.60;;;19.00;74.20;;;;;;5030937;28;20474;-46
2022/01/18 12:02:55;;;;;;;12.20;11.80;;;19.00;73.90;;;;;;5030789;28;20965;-47
2022/01/18 12:05:25;;;;;;;12.67;12.17;;;19.00;73.70;;;;;;5031108;28;20473;-48
2022/01/18 12:07:58;;;;;;;13.73;13.23;;;19.00;73.60;;;;;;5030899;28;20449;-50
2022/01/18 12:10:52;;;;;;;11.23;10.93;;;19.00;73.40;;;;;;5034504;28;20827;-46
2022/01/18 12:13:33;;;;;;;12.63;12.23;;;18.90;73.50;;;;;;5034420;28;20938;-48
2022/01/18 12:16:03;;;;;;;12.57;12.17;;;18.90;73.40;;;;;;5034719;28;20449;-48
2022/01/18 12:18:32;;;;;;;11.90;11.50;;;18.90;73.30;;;;;;5034542;28;20860;-46
2022/01/18 12:21:01;;;;;;;12.83;12.33;;;18.90;73.30;;;;;;5034434;28;20471;-46
2022/01/18 12:23:41;;;;;;;13.87;13.27;;;19.00;72.90;;;;;;5034141;28;20456;-46
2022/01/18 12:26:16;;;;;;;12.60;12.20;;;19.10;72.80;;;;;;5034562;28;20491;-50
2022/01/18 12:34:48;;;;;;;11.70;11.30;;;19.00;72.80;;;;;;5029079;28;20955;-46
2022/01/18 12:37:36;;;;;;;11.33;10.93;;;19.00;72.70;;;;;;5034250;28;20543;-48
2022/01/18 12:40:08;;;;;;;11.77;11.37;;;19.00;72.40;;;;;;5034220;28;20468;-46
2022/01/18 12:45:26;;;;;;;11.27;10.97;;;19.00;72.30;;;;;;5034176;28;20918;-48
2022/01/18 12:47:55;;;;;;;11.73;11.40;;;19.00;72.10;;;;;;5033953;28;20448;-46
2022/01/18 12:50:24;;;;;;;11.50;11.17;;;19.00;72.00;;;;;;5033762;28;20488;-46
2022/01/18 12:52:53;;;;;;;12.03;11.63;;;19.00;71.90;;;;;;5033708;28;20449;-46
2022/01/18 12:55:35;;;;;;;12.57;12.17;;;19.00;71.60;;;;;;5033988;28;20452;-48
2022/01/18 12:58:04;;;;;;;12.53;12.13;;;19.00;71.50;;;;;;5033807;28;20481;-46
2022/01/18 13:00:37;;;;;;;12.47;12.07;;;19.00;71.50;;;;;;5033881;28;20872;-47
2022/01/18 13:03:05;;;;;;;13.43;12.80;;;19.00;71.50;;;;;;5033665;28;20798;-48
2022/01/18 13:05:37;;;;;;;11.70;11.40;;;18.90;71.50;;;;;;5033809;28;20440;-48
2022/01/18 13:08:05;;;;;;;13.40;13.00;;;19.00;71.50;;;;;;5033751;28;20452;-46
2022/01/18 13:10:40;;;;;;;11.87;11.30;;;19.00;71.30;;;;;;5033486;28;20469;-46
2022/01/18 13:13:08;;;;;;;12.20;11.80;;;19.10;71.10;;;;;;5033527;28;20448;-46
2022/01/18 13:15:51;;;;;;;11.83;11.40;;;19.20;70.80;;;;;;5033469;28;20456;-46
2022/01/18 13:23:57;;;;;;;13.37;12.67;;;19.60;69.20;;;;;;5033321;28;20425;-46
2022/01/18 13:26:29;;;;;;;12.30;11.90;;;19.70;68.30;;;;;;5033408;28;20941;-46
2022/01/18 13:28:56;;;;;;;12.47;12.07;;;19.70;67.80;;;;;;5033244;28;20441;-47
2022/01/18 13:31:26;;;;;;;12.50;12.10;;;19.70;67.50;;;;;;5033157;28;20476;-50
2022/01/18 13:33:55;;;;;;;12.47;12.07;;;19.80;67.20;;;;;;5033089;28;20804;-45
2022/01/18 13:36:22;;;;;;;12.27;11.87;;;19.70;66.70;;;;;;5033181;28;20449;-46
2022/01/18 13:38:49;;;;;;;12.43;12.03;;;19.80;66.60;;;;;;5033073;28;20479;-49
2022/01/18 13:41:17;;;;;;;12.20;11.90;;;19.80;66.40;;;;;;5032922;28;20479;-50
2022/01/18 13:43:44;;;;;;;12.80;12.40;;;19.80;66.10;;;;;;5032760;28;20445;-46